Masz pytanie?

GDDKiA Wrocław :: Generalna Dyrekcja Dróg Krajowych i...

Znajdują się Państwo na stronie GDDKiA.gov.pl. Poniżej prezentujemy instrukcję instalacji darmowego czytnika ekranu wykorzystującego syntezator oparty na...www.gddkia.gov.pl/pl/54/gddkia-wroclaw

gddkia.gov.pl - Serwis informacyjny

Znajdują się Państwo na stronie GDDKiA.gov.pl. Poniżej prezentujemy instrukcję instalacji darmowego czytnika ekranu wykorzystującego syntezator oparty na...www.gddkia.gov.pl/

Kamery na drogach Polski - TRAX elektronik

Menu 2: Menu2a: Menu 3www.traxelektronik.pl/pogoda/kamery/index.php

Geodezja Wrocław - Geodeta Wrocław - usługi geodezyjne i...

Usługi w zakresie geodezji to nasza specjalność Firma Geopoint od lat z powodzeniem działa w branży geodezyjnej. Wprawdzie siedzibą firmy jest Wrocław ale...www.geopoint-geodezja.pl/

Pogoda we Wrocławiu - InfoMeteo.pl

Depesza METAR lotniska Wrocław-Strachowice METAR = EPWR 241130Z VRB04KT 9999 FEW044 10/00 Q1017 STACJA..... EPWR - Wrocław-Strachowice (WRO) …wroclaw.infometeo.pl/